createdAt,value
2023-03-22T00:01:21.910Z,13.10
2023-03-22T00:04:26.036Z,12.99
2023-03-22T00:07:30.073Z,12.97
2023-03-22T00:10:34.188Z,12.66
2023-03-22T00:13:38.136Z,12.46
2023-03-22T00:16:41.860Z,12.70
2023-03-22T00:19:46.093Z,12.64
2023-03-22T00:22:49.992Z,11.85
2023-03-22T00:25:54.358Z,12.24
2023-03-22T00:28:58.413Z,12.34
2023-03-22T00:32:02.125Z,12.17
2023-03-22T00:35:05.964Z,11.91
2023-03-22T00:38:09.825Z,11.75
2023-03-22T00:41:13.877Z,11.66
2023-03-22T00:44:17.987Z,11.34
2023-03-22T00:47:22.080Z,11.71
2023-03-22T00:50:26.544Z,11.45
2023-03-22T00:53:30.440Z,11.11
2023-03-22T00:56:34.352Z,11.34
2023-03-22T00:59:38.603Z,11.54
2023-03-22T01:02:42.596Z,11.54
2023-03-22T01:05:46.813Z,11.72
2023-03-22T01:08:51.060Z,11.06
2023-03-22T01:11:54.714Z,10.81
2023-03-22T01:14:58.863Z,11.42
2023-03-22T01:18:03.184Z,11.64
2023-03-22T01:21:07.543Z,11.60
2023-03-22T01:24:11.412Z,11.54
2023-03-22T01:27:15.209Z,11.57
2023-03-22T01:30:19.212Z,11.68
2023-03-22T01:33:23.305Z,11.26
2023-03-22T01:36:27.385Z,10.85
2023-03-22T01:39:31.523Z,10.72
2023-03-22T01:42:37.422Z,11.04
2023-03-22T01:45:41.374Z,10.86
2023-03-22T01:48:45.580Z,10.65
2023-03-22T01:51:49.572Z,11.13
2023-03-22T01:54:53.542Z,11.32
2023-03-22T01:57:57.396Z,11.31
2023-03-22T02:01:01.375Z,11.33
2023-03-22T02:04:05.306Z,10.64
2023-03-22T02:07:09.284Z,10.20
2023-03-22T02:10:14.898Z,10.64
2023-03-22T02:13:21.672Z,10.81
2023-03-22T02:16:25.735Z,10.93
2023-03-22T02:19:29.975Z,10.54
2023-03-22T02:22:33.662Z,10.60
2023-03-22T02:25:37.424Z,10.24
2023-03-22T02:28:41.686Z,9.69
2023-03-22T02:31:45.583Z,9.68
2023-03-22T02:34:51.019Z,9.77
2023-03-22T02:37:55.265Z,10.00
2023-03-22T02:40:58.878Z,10.23
2023-03-22T02:44:02.761Z,10.11
2023-03-22T02:47:06.491Z,10.16
2023-03-22T02:50:10.576Z,10.65
2023-03-22T02:53:14.722Z,10.75
2023-03-22T02:56:18.763Z,10.67
2023-03-22T02:59:22.707Z,10.38
2023-03-22T03:02:26.837Z,10.34
2023-03-22T03:05:31.100Z,10.02
2023-03-22T03:08:34.722Z,9.85
2023-03-22T03:11:38.748Z,9.82
2023-03-22T03:14:42.623Z,10.22
2023-03-22T03:17:46.815Z,10.63
2023-03-22T03:20:50.828Z,10.59
2023-03-22T03:23:54.672Z,10.65
2023-03-22T03:27:01.932Z,10.71
2023-03-22T03:30:05.827Z,10.78
2023-03-22T03:33:09.994Z,10.72
2023-03-22T03:36:14.328Z,10.78
2023-03-22T03:39:17.886Z,10.89
2023-03-22T03:42:21.825Z,11.05
2023-03-22T03:45:25.959Z,10.98
2023-03-22T03:48:30.253Z,10.66
2023-03-22T03:51:34.182Z,10.42
2023-03-22T03:54:37.985Z,10.18
2023-03-22T03:57:42.250Z,9.82
2023-03-22T04:00:46.523Z,9.58
2023-03-22T04:03:50.384Z,9.42
2023-03-22T04:06:54.007Z,9.51
2023-03-22T04:09:58.264Z,9.41
2023-03-22T04:13:02.199Z,8.83
2023-03-22T04:16:06.388Z,9.10
2023-03-22T04:19:10.356Z,9.63
2023-03-22T04:22:14.326Z,10.02
2023-03-22T04:25:18.402Z,9.79
2023-03-22T04:28:22.361Z,9.69
2023-03-22T04:31:26.481Z,10.12
2023-03-22T04:34:30.370Z,10.23
2023-03-22T04:37:34.220Z,10.07
2023-03-22T04:40:38.618Z,10.14
2023-03-22T04:43:42.534Z,10.03
2023-03-22T04:46:46.643Z,10.08
2023-03-22T04:49:50.437Z,9.82
2023-03-22T04:52:54.422Z,10.20
2023-03-22T04:55:58.798Z,10.26
2023-03-22T04:59:03.012Z,10.20
2023-03-22T05:02:06.903Z,9.96
2023-03-22T05:05:10.904Z,9.90
2023-03-22T05:08:15.081Z,9.54
2023-03-22T05:11:18.915Z,9.58
2023-03-22T05:14:23.239Z,9.72
2023-03-22T05:17:30.239Z,9.32
2023-03-22T05:20:34.230Z,9.65
2023-03-22T05:23:37.863Z,9.86
2023-03-22T05:26:42.934Z,9.31
2023-03-22T05:29:47.303Z,9.68
2023-03-22T05:32:51.271Z,9.50
2023-03-22T05:35:55.146Z,9.74
2023-03-22T05:38:59.109Z,9.63
2023-03-22T05:42:05.353Z,9.41
2023-03-22T05:45:09.799Z,9.28
2023-03-22T05:48:14.159Z,9.27
2023-03-22T05:51:17.880Z,9.40
2023-03-22T05:54:21.767Z,9.06
2023-03-22T05:57:27.058Z,9.20
2023-03-22T06:00:31.704Z,9.53
2023-03-22T06:03:35.785Z,9.11
2023-03-22T06:06:39.666Z,9.53
2023-03-22T06:09:45.830Z,9.42
2023-03-22T06:12:49.903Z,9.22
2023-03-22T06:15:54.052Z,9.47
2023-03-22T06:18:58.282Z,9.46
2023-03-22T06:22:02.311Z,9.73
2023-03-22T06:25:06.071Z,9.50
2023-03-22T06:28:10.368Z,9.53
2023-03-22T06:31:14.237Z,9.91
2023-03-22T06:34:18.068Z,10.02
2023-03-22T06:37:21.872Z,10.18
2023-03-22T06:40:25.742Z,10.19
2023-03-22T06:43:29.817Z,10.32
2023-03-22T06:46:33.918Z,10.30
2023-03-22T06:49:37.769Z,10.09
2023-03-22T06:56:12.282Z,10.50
2023-03-22T06:59:16.309Z,10.44
2023-03-22T07:02:31.564Z,10.68
2023-03-22T07:05:58.645Z,10.46
2023-03-22T07:15:59.842Z,10.85
2023-03-22T07:19:14.529Z,11.20
2023-03-22T07:22:24.201Z,11.44
2023-03-22T07:25:30.524Z,11.66
2023-03-22T07:28:40.258Z,11.51
2023-03-22T07:31:48.109Z,11.88
2023-03-22T07:45:38.786Z,12.58
2023-03-22T07:48:45.267Z,12.73
2023-03-22T07:55:25.941Z,12.42
2023-03-22T07:58:30.795Z,12.06
2023-03-22T08:05:12.616Z,12.83
2023-03-22T08:11:45.503Z,13.14
2023-03-22T08:14:54.499Z,13.16
2023-03-22T08:18:01.184Z,13.04
2023-03-22T08:21:07.081Z,13.03
2023-03-22T08:24:14.383Z,13.06
2023-03-22T08:27:27.148Z,13.16
2023-03-22T08:30:36.908Z,13.19
2023-03-22T08:33:41.693Z,12.87
2023-03-22T08:36:54.820Z,13.07
2023-03-22T08:46:54.537Z,11.77
2023-03-22T08:50:00.288Z,11.91
2023-03-22T08:53:09.199Z,12.08
2023-03-22T08:56:19.656Z,12.31
2023-03-22T08:59:29.588Z,12.36
2023-03-22T09:05:58.756Z,12.42
2023-03-22T09:09:07.448Z,12.57
2023-03-22T09:12:16.901Z,12.90
2023-03-22T09:15:21.515Z,12.97
2023-03-22T09:18:38.382Z,13.10
2023-03-22T09:21:42.492Z,13.31
2023-03-22T09:24:46.440Z,13.23
2023-03-22T09:27:52.762Z,13.26
2023-03-22T09:30:57.134Z,13.50
2023-03-22T09:34:01.107Z,13.51
2023-03-22T09:37:04.973Z,13.05
2023-03-22T09:40:09.494Z,12.78
2023-03-22T09:43:13.703Z,13.11
2023-03-22T09:46:17.945Z,12.97
2023-03-22T09:49:22.021Z,13.09
2023-03-22T09:52:25.753Z,12.64
2023-03-22T09:55:29.812Z,13.22
2023-03-22T09:58:33.690Z,13.38
2023-03-22T10:01:39.328Z,13.55
2023-03-22T10:04:43.526Z,13.58
2023-03-22T10:07:47.452Z,13.71
2023-03-22T10:10:51.807Z,13.70
2023-03-22T10:13:55.847Z,13.39
2023-03-22T10:16:59.882Z,13.07
2023-03-22T10:20:04.146Z,13.13
2023-03-22T10:23:07.989Z,13.13
2023-03-22T10:26:11.931Z,13.39
2023-03-22T10:29:15.956Z,13.04
2023-03-22T10:32:19.968Z,12.96
2023-03-22T10:35:23.812Z,13.33
2023-03-22T10:38:27.846Z,13.37
2023-03-22T10:41:31.589Z,13.06
2023-03-22T10:44:35.840Z,12.86
2023-03-22T10:47:39.980Z,12.91
2023-03-22T10:50:44.142Z,12.75
2023-03-22T10:53:48.105Z,13.20
2023-03-22T10:56:52.088Z,13.89
2023-03-22T10:59:55.887Z,14.04
2023-03-22T11:02:59.879Z,13.35
2023-03-22T11:06:04.044Z,13.26
2023-03-22T11:09:08.329Z,13.74
2023-03-22T11:12:12.381Z,13.92
2023-03-22T11:15:16.596Z,13.88
2023-03-22T11:18:20.406Z,13.78
2023-03-22T11:21:25.470Z,13.85
2023-03-22T11:24:30.930Z,14.31
2023-03-22T11:27:35.058Z,14.37
2023-03-22T11:30:39.651Z,14.28
2023-03-22T11:33:43.513Z,14.37
2023-03-22T11:39:52.810Z,14.44
2023-03-22T11:42:57.133Z,14.41
2023-03-22T11:46:01.451Z,14.32
2023-03-22T11:49:05.583Z,14.59
2023-03-22T11:52:09.809Z,14.68
2023-03-22T11:55:13.993Z,15.02
2023-03-22T11:58:18.004Z,14.83
2023-03-22T12:01:22.135Z,14.92
2023-03-22T12:04:25.845Z,14.92
2023-03-22T12:07:29.750Z,15.26
2023-03-22T12:10:36.131Z,15.32
2023-03-22T12:13:40.277Z,15.16
2023-03-22T12:16:44.361Z,14.90
2023-03-22T12:19:48.390Z,15.08
2023-03-22T12:22:52.319Z,15.44
2023-03-22T12:25:57.168Z,15.34
2023-03-22T12:29:01.210Z,15.69
2023-03-22T12:32:05.085Z,15.48
2023-03-22T12:35:17.169Z,15.81
2023-03-22T12:38:22.006Z,15.60
2023-03-22T12:41:25.857Z,15.61
2023-03-22T12:44:29.773Z,15.71
2023-03-22T12:47:33.923Z,15.81
2023-03-22T12:50:38.292Z,16.04
2023-03-22T12:53:42.070Z,16.02
2023-03-22T12:56:46.115Z,16.16
2023-03-22T12:59:50.336Z,16.28
2023-03-22T13:02:54.695Z,16.47
2023-03-22T13:05:58.657Z,16.32
2023-03-22T13:09:02.504Z,16.47
2023-03-22T13:12:06.816Z,16.38
2023-03-22T13:15:10.374Z,16.39
2023-03-22T13:18:14.486Z,16.43
2023-03-22T13:21:18.508Z,16.40
2023-03-22T13:24:22.322Z,16.59
2023-03-22T13:27:26.532Z,16.66
2023-03-22T13:30:32.894Z,16.21
2023-03-22T13:33:37.537Z,16.33
2023-03-22T13:36:41.430Z,16.16
2023-03-22T13:39:47.258Z,16.22
2023-03-22T13:42:51.592Z,16.44
2023-03-22T13:45:55.785Z,16.51
2023-03-22T13:49:00.966Z,16.60
2023-03-22T13:52:05.256Z,16.71
2023-03-22T13:55:09.184Z,16.79
2023-03-22T13:58:13.059Z,16.77
2023-03-22T14:01:17.273Z,16.82
2023-03-22T14:04:21.286Z,17.03
2023-03-22T14:07:25.259Z,17.14
2023-03-22T14:10:29.225Z,17.27
2023-03-22T14:13:33.287Z,17.31
2023-03-22T14:16:37.355Z,17.22
2023-03-22T14:19:41.251Z,17.30
